createdAt,value
2023-05-14T00:02:10.321Z,0
2023-05-14T00:07:19.876Z,0
2023-05-14T00:58:55.577Z,0
2023-05-14T01:04:05.586Z,0
2023-05-14T01:09:13.797Z,0
2023-05-14T01:14:22.304Z,0
2023-05-14T01:19:31.412Z,0
2023-05-14T01:24:40.569Z,0
2023-05-14T01:29:50.260Z,0
2023-05-14T01:35:00.675Z,0
2023-05-14T01:40:10.443Z,0
2023-05-14T01:45:18.266Z,0
2023-05-14T01:50:26.772Z,0
2023-05-14T01:55:35.231Z,0
2023-05-14T02:00:44.373Z,0
2023-05-14T02:05:52.863Z,0
2023-05-14T02:11:01.313Z,0
2023-05-14T02:16:11.464Z,0
2023-05-14T02:21:18.919Z,0
2023-05-14T02:26:27.633Z,0
2023-05-14T02:31:36.118Z,0
2023-05-14T03:33:25.944Z,19
2023-05-14T03:38:35.745Z,29
2023-05-14T03:43:46.140Z,48
2023-05-14T03:48:56.042Z,75
2023-05-14T03:54:05.010Z,116
2023-05-14T03:59:13.484Z,181
2023-05-14T04:04:23.436Z,240
2023-05-14T04:09:33.010Z,1366
2023-05-14T04:14:41.511Z,360
2023-05-14T05:06:16.521Z,873
2023-05-14T05:11:25.651Z,875
2023-05-14T05:16:35.155Z,1425
2023-05-14T05:21:44.532Z,1273
2023-05-14T05:26:53.651Z,906
2023-05-14T05:32:02.753Z,685
2023-05-14T05:37:11.879Z,408
2023-05-14T05:42:21.658Z,363
2023-05-14T05:47:30.939Z,654
2023-05-14T05:52:39.267Z,859
2023-05-14T05:57:47.744Z,978
2023-05-14T06:02:57.633Z,958
2023-05-14T06:08:06.591Z,937
2023-05-14T06:13:16.346Z,738
2023-05-14T06:18:26.299Z,1029
2023-05-14T06:23:34.603Z,1043
2023-05-14T06:28:43.103Z,1053
2023-05-14T07:15:03.882Z,1192
2023-05-14T07:20:13.702Z,1202
2023-05-14T07:25:22.126Z,1217
2023-05-14T07:30:30.586Z,1226
2023-05-14T07:35:39.715Z,1246
2023-05-14T07:40:48.837Z,1264
2023-05-14T07:45:59.239Z,1285
2023-05-14T07:51:09.637Z,1315
2023-05-14T07:56:18.147Z,1347
2023-05-14T08:01:27.863Z,1365
2023-05-14T08:06:36.340Z,1389
2023-05-14T08:11:45.517Z,1394
2023-05-14T08:16:56.245Z,1414
2023-05-14T08:22:06.262Z,1398
2023-05-14T08:27:15.391Z,1494
2023-05-14T08:32:25.178Z,1524
2023-05-14T08:37:34.299Z,1508
2023-05-14T08:42:44.038Z,1487
2023-05-14T08:47:54.827Z,1435
2023-05-14T08:53:03.590Z,1400
2023-05-14T08:58:12.701Z,1437
2023-05-14T09:03:22.626Z,1442
2023-05-14T09:08:31.579Z,1474
2023-05-14T09:13:41.331Z,1513
2023-05-14T09:18:50.635Z,1579
2023-05-14T09:23:59.715Z,1629
2023-05-14T09:29:08.707Z,1683
2023-05-14T09:34:18.449Z,1597
2023-05-14T09:39:27.613Z,1507
2023-05-14T09:44:37.342Z,1633
2023-05-14T09:49:45.832Z,1631
2023-05-14T09:54:54.943Z,1615
2023-05-14T10:00:05.308Z,1664
2023-05-14T10:05:13.833Z,1635
2023-05-14T10:10:23.001Z,1643
2023-05-14T10:56:43.070Z,1592
2023-05-14T11:01:52.397Z,1609
2023-05-14T11:07:01.950Z,1637
2023-05-14T11:12:11.696Z,556
2023-05-14T11:17:21.020Z,1664
2023-05-14T11:22:32.547Z,1722
2023-05-14T11:27:41.632Z,1725
2023-05-14T11:32:50.675Z,1790
2023-05-14T11:37:58.601Z,1825
2023-05-14T11:43:08.359Z,725
2023-05-14T11:48:17.475Z,1842
2023-05-14T11:53:27.241Z,1893
2023-05-14T11:58:36.358Z,1807
2023-05-14T12:03:46.629Z,1941
2023-05-14T12:08:55.227Z,1913
2023-05-14T12:14:04.355Z,2003
2023-05-14T12:19:13.685Z,2148
2023-05-14T12:24:22.607Z,2377
2023-05-14T12:42:12.803Z,756
2023-05-14T12:47:22.867Z,921
2023-05-14T12:52:40.348Z,1941
2023-05-14T12:57:39.897Z,2185
2023-05-14T13:02:49.340Z,1332
2023-05-14T13:07:58.939Z,1290
2023-05-14T13:13:08.131Z,1381
2023-05-14T13:18:16.545Z,2066
2023-05-14T13:23:25.634Z,2146
2023-05-14T13:28:36.069Z,2252
2023-05-14T13:33:44.538Z,2323
2023-05-14T13:38:53.643Z,1405
2023-05-14T13:44:01.486Z,1422
2023-05-14T13:49:11.248Z,1221
2023-05-14T13:54:21.030Z,1067
2023-05-14T13:59:30.121Z,999
2023-05-14T14:04:39.886Z,1787
2023-05-14T14:09:48.368Z,1642
2023-05-14T14:14:56.840Z,1036
2023-05-14T14:20:05.383Z,1454
2023-05-14T14:25:15.715Z,1720
2023-05-14T14:30:24.853Z,1921
2023-05-14T14:35:33.319Z,2023
2023-05-14T14:40:42.423Z,2007
2023-05-14T14:45:51.204Z,1984
2023-05-14T14:51:00.061Z,1902
2023-05-14T14:56:09.829Z,1701
2023-05-14T15:01:19.800Z,1306
2023-05-14T15:06:29.350Z,1601
2023-05-14T15:11:39.088Z,1512
2023-05-14T16:03:12.776Z,1123
2023-05-14T16:08:21.307Z,1108
2023-05-14T16:59:47.412Z,890
2023-05-14T17:04:57.491Z,813
2023-05-14T17:10:05.665Z,755
2023-05-14T17:15:14.748Z,712
2023-05-14T17:20:23.213Z,673
2023-05-14T17:25:34.890Z,631
2023-05-14T17:30:44.055Z,574
2023-05-14T17:35:53.170Z,552
2023-05-14T17:41:02.286Z,554
2023-05-14T17:46:12.154Z,549
2023-05-14T17:51:21.770Z,482
2023-05-14T17:56:30.904Z,400
2023-05-14T18:01:39.424Z,307
2023-05-14T18:06:48.534Z,206
2023-05-14T18:11:57.678Z,135
2023-05-14T18:17:06.484Z,82
2023-05-14T18:22:15.238Z,60
2023-05-14T18:27:25.010Z,56
2023-05-14T18:32:34.852Z,49
2023-05-14T18:37:44.540Z,40
2023-05-14T18:42:53.008Z,31
2023-05-14T18:48:01.797Z,25
2023-05-14T18:53:10.618Z,20
2023-05-14T19:39:29.482Z,0
2023-05-14T20:31:01.414Z,0
2023-05-14T20:36:10.461Z,0
2023-05-14T20:41:20.197Z,0
2023-05-14T20:46:30.254Z,0
2023-05-14T20:51:39.750Z,0
2023-05-14T20:56:48.185Z,0
2023-05-14T21:01:58.179Z,0
2023-05-14T21:07:07.112Z,0
2023-05-14T21:12:15.583Z,0
2023-05-14T21:17:24.182Z,0
2023-05-14T21:22:33.807Z,0
2023-05-14T21:27:42.930Z,0
2023-05-14T21:32:52.797Z,0
2023-05-14T21:38:00.535Z,0
2023-05-14T21:43:09.018Z,0
2023-05-14T21:48:17.954Z,0
2023-05-14T21:53:27.259Z,0
2023-05-14T21:58:37.032Z,0
2023-05-14T22:03:46.279Z,0
2023-05-14T22:44:57.215Z,0
2023-05-14T22:50:06.932Z,0
2023-05-14T22:55:16.044Z,0
2023-05-14T23:00:24.540Z,0
2023-05-14T23:05:34.302Z,0
2023-05-14T23:10:44.678Z,0
2023-05-14T23:15:53.825Z,0
2023-05-14T23:21:02.947Z,0
2023-05-14T23:26:12.682Z,0
2023-05-14T23:31:23.223Z,0
